Toledo, Iowa
Current Conditions -  °F | °C
As of 12:53 PM on Monday 20 Oct 2014 (Local Time) from KMIW Reporting Station
Clear Clear  
Wind Chill: 66°   Ceiling: Unl
Heat Index: 66°   Visibility: 10mi
Dew Point: 44°   Wind: 14mph
Humidity: 45%   Direction: 310°NW
Pressure: 29.99"   Gusts: NA
Location:  42°N, 92.58°W
Report Text: KMIW 201753Z AUTO 31012KT 10SM CLR 19/07 A2999 RMK AO2 SLP156 T01890067 10189 20039 58008
Loading
Personal Weather Stations






























Interactive Weather Map
Tropical Storm Tracking
New forecast layout! Learn more

10-Day Weather Forecast

Advertisements
Track Severe Weather on mobile